Time;durP1;ratioP1;P1;durP2;ratioP2;P2;SDS_P1;SDS_P2;PMS_P1;PMS_P2;Temp;Humidity;BMP_temperature;BMP_pressure;BME280_temperature;BME280_humidity;BME280_pressure;Samples;Min_cycle;Max_cycle;Signal;HPM_P1;HPM_P2
2023/01/30 00:00:33;;;;;;;56.60;26.67;;;;;;;;;;4674593;28;9999816;-77
2023/01/30 00:02:59;;;;;;;63.13;28.50;;;;;;;;;;5018256;28;20022;-77
2023/01/30 00:05:25;;;;;;;65.13;29.67;;;;;;;;;;5019314;28;20030;-77
2023/01/30 00:07:51;;;;;;;59.60;28.17;;;;;;;;;;5027672;28;20037;-77
2023/01/30 00:10:17;;;;;;;60.97;28.75;;;;;;;;;;5010951;28;20033;-77
2023/01/30 00:12:43;;;;;;;60.08;28.63;;;;;;;;;;5016480;28;20065;-77
2023/01/30 00:15:09;;;;;;;60.42;29.48;;;;;;;;;;5017407;28;20160;-77
2023/01/30 00:17:35;;;;;;;63.85;28.83;;;;;;;;;;5021825;28;20026;-77
2023/01/30 00:20:02;;;;;;;66.50;30.10;;;;;;;;;;5019136;28;20037;-77
2023/01/30 00:22:28;;;;;;;63.63;29.33;;;;;;;;;;5017241;28;20124;-77
2023/01/30 00:24:54;;;;;;;62.30;29.05;;;;;;;;;;5015391;28;20117;-77
2023/01/30 00:27:20;;;;;;;62.00;29.85;;;;;;;;;;5012139;28;20124;-76
2023/01/30 00:29:45;;;;;;;66.28;30.42;;;;;;;;;;5015045;28;20494;-76
2023/01/30 00:32:11;;;;;;;65.50;30.85;;;;;;;;;;5016599;28;20125;-77
2023/01/30 00:34:37;;;;;;;68.63;31.58;;;;;;;;;;5014455;28;20556;-77
2023/01/30 00:37:03;;;;;;;69.15;32.13;;;;;;;;;;5025273;28;20033;-77
2023/01/30 00:39:29;;;;;;;73.85;33.78;;;;;;;;;;5013314;28;20038;-76
2023/01/30 00:47:25;;;;;;;75.75;35.00;;;;;;;;;;5026779;28;20095;-76
2023/01/30 00:49:50;;;;;;;71.40;32.53;;;;;;;;;;5020889;28;20054;-76
2023/01/30 00:52:16;;;;;;;73.88;33.83;;;;;;;;;;5016156;28;20695;-77
2023/01/30 00:54:42;;;;;;;74.88;33.78;;;;;;;;;;5017899;28;20025;-77
2023/01/30 00:57:08;;;;;;;74.88;34.25;;;;;;;;;;5018687;28;20034;-76
2023/01/30 00:59:34;;;;;;;78.30;34.95;;;;;;;;;;5017352;28;20026;-76
2023/01/30 01:02:00;;;;;;;77.95;35.38;;;;;;;;;;5012404;28;20430;-76
2023/01/30 01:04:26;;;;;;;77.60;33.80;;;;;;;;;;5021217;28;20088;-77
2023/01/30 01:06:52;;;;;;;73.55;34.42;;;;;;;;;;5019945;28;20119;-76
2023/01/30 01:09:18;;;;;;;79.68;34.80;;;;;;;;;;5016602;28;20588;-76
2023/01/30 01:11:44;;;;;;;75.32;32.83;;;;;;;;;;5020995;28;20159;-76
2023/01/30 01:14:10;;;;;;;73.25;32.72;;;;;;;;;;5013529;28;20037;-77
2023/01/30 01:16:36;;;;;;;80.35;35.05;;;;;;;;;;5020311;28;20468;-76
2023/01/30 01:19:02;;;;;;;84.07;35.00;;;;;;;;;;5024519;28;20046;-77
2023/01/30 01:21:28;;;;;;;73.88;33.40;;;;;;;;;;5014815;28;20390;-76
2023/01/30 01:23:56;;;;;;;84.07;34.25;;;;;;;;;;5015599;28;20041;-77
2023/01/30 01:26:22;;;;;;;78.32;33.85;;;;;;;;;;5020160;28;20144;-76
2023/01/30 01:28:48;;;;;;;73.68;33.85;;;;;;;;;;5018244;28;20022;-76
2023/01/30 01:31:15;;;;;;;78.18;33.70;;;;;;;;;;5020284;28;20106;-76
2023/01/30 01:33:41;;;;;;;80.32;34.75;;;;;;;;;;5022157;28;20494;-76
2023/01/30 01:36:07;;;;;;;84.85;35.13;;;;;;;;;;5018934;28;20057;-76
2023/01/30 01:38:33;;;;;;;81.32;36.65;;;;;;;;;;5027201;28;20028;-76
2023/01/30 01:41:04;;;;;;;77.82;35.15;;;;;;;;;;5016994;28;20025;-76
2023/01/30 01:43:32;;;;;;;79.57;35.25;;;;;;;;;;5015912;28;20026;-77
2023/01/30 01:46:00;;;;;;;80.88;35.45;;;;;;;;;;5023089;28;20445;-76
2023/01/30 01:48:52;;;;;;;75.07;33.15;;;;;;;;;;5024858;28;20037;-76
2023/01/30 01:51:39;;;;;;;84.85;36.05;;;;;;;;;;5013969;28;20037;-76
2023/01/30 01:54:08;;;;;;;84.88;35.08;;;;;;;;;;5011091;28;20088;-76
2023/01/30 01:56:35;;;;;;;80.75;35.58;;;;;;;;;;5019171;28;20029;-76
2023/01/30 01:59:02;;;;;;;76.38;33.35;;;;;;;;;;5020063;28;20045;-77
2023/01/30 02:01:29;;;;;;;82.72;35.15;;;;;;;;;;5019223;28;20558;-76
2023/01/30 02:03:57;;;;;;;81.03;34.50;;;;;;;;;;5025639;28;20033;-76
2023/01/30 02:06:23;;;;;;;77.35;34.05;;;;;;;;;;5009871;28;20036;-76
2023/01/30 02:08:51;;;;;;;75.20;33.53;;;;;;;;;;5021627;28;20033;-76
2023/01/30 02:11:21;;;;;;;79.10;34.45;;;;;;;;;;5016830;28;20165;-76
2023/01/30 02:13:48;;;;;;;73.88;34.63;;;;;;;;;;5021348;28;20033;-76
2023/01/30 02:16:14;;;;;;;78.53;33.28;;;;;;;;;;5022262;28;20029;-76
2023/01/30 02:18:41;;;;;;;78.43;34.47;;;;;;;;;;5013401;28;20452;-76
2023/01/30 02:21:26;;;;;;;76.40;33.70;;;;;;;;;;5016669;28;20033;-76
2023/01/30 02:23:58;;;;;;;79.25;34.78;;;;;;;;;;5023374;28;20060;-76
2023/01/30 02:26:42;;;;;;;72.47;32.60;;;;;;;;;;5018721;28;20083;-76
2023/01/30 02:29:14;;;;;;;77.63;32.78;;;;;;;;;;5016120;28;20034;-77
2023/01/30 02:31:45;;;;;;;76.88;32.45;;;;;;;;;;5019812;28;20134;-76
2023/01/30 02:34:17;;;;;;;72.10;33.05;;;;;;;;;;5018121;28;20037;-76
2023/01/30 02:36:51;;;;;;;76.30;33.05;;;;;;;;;;5015187;28;20034;-77
2023/01/30 02:39:35;;;;;;;75.45;33.63;;;;;;;;;;5025926;28;20033;-77
2023/01/30 02:42:04;;;;;;;78.10;33.95;;;;;;;;;;5019242;28;20029;-77
2023/01/30 02:44:34;;;;;;;78.57;34.42;;;;;;;;;;5013559;28;20437;-77
2023/01/30 02:47:03;;;;;;;84.45;34.97;;;;;;;;;;5019215;28;20528;-76
2023/01/30 02:49:33;;;;;;;77.22;33.78;;;;;;;;;;5007253;28;20426;-77
2023/01/30 02:52:00;;;;;;;81.45;35.05;;;;;;;;;;5012548;28;20091;-77
2023/01/30 02:54:26;;;;;;;74.05;32.58;;;;;;;;;;5016108;28;20159;-77
2023/01/30 02:56:53;;;;;;;74.68;33.25;;;;;;;;;;5020943;28;20156;-77
2023/01/30 02:59:23;;;;;;;79.50;35.45;;;;;;;;;;5013889;28;20029;-76
2023/01/30 03:01:59;;;;;;;78.18;34.50;;;;;;;;;;5010496;28;20041;-76
2023/01/30 03:04:37;;;;;;;78.78;34.05;;;;;;;;;;5017828;28;20032;-76
2023/01/30 03:07:21;;;;;;;77.93;33.45;;;;;;;;;;5012845;28;20116;-76
2023/01/30 03:09:48;;;;;;;80.65;35.22;;;;;;;;;;5023472;28;20037;-77
2023/01/30 03:12:23;;;;;;;89.07;37.03;;;;;;;;;;5012469;28;20447;-77
2023/01/30 03:14:52;;;;;;;82.85;35.00;;;;;;;;;;5015447;28;20039;-76
2023/01/30 03:17:20;;;;;;;80.07;34.75;;;;;;;;;;5015824;28;20071;-76
2023/01/30 03:19:46;;;;;;;82.50;34.40;;;;;;;;;;5020429;28;20176;-76
2023/01/30 03:22:12;;;;;;;81.60;35.13;;;;;;;;;;5026612;28;20477;-77
2023/01/30 03:24:38;;;;;;;84.93;35.10;;;;;;;;;;5017998;28;20034;-77
2023/01/30 03:27:13;;;;;;;82.80;35.25;;;;;;;;;;5029235;28;20087;-76
2023/01/30 03:29:39;;;;;;;83.78;34.72;;;;;;;;;;5023789;28;20036;-77
2023/01/30 03:32:05;;;;;;;84.97;33.78;;;;;;;;;;5025119;28;20037;-76
2023/01/30 03:34:31;;;;;;;83.97;35.35;;;;;;;;;;5018562;28;20064;-76
2023/01/30 03:36:57;;;;;;;81.80;34.47;;;;;;;;;;5016037;28;20056;-76
2023/01/30 03:39:24;;;;;;;82.10;33.65;;;;;;;;;;5016949;28;20447;-77
2023/01/30 03:41:50;;;;;;;83.10;33.85;;;;;;;;;;5019274;28;20087;-76
2023/01/30 03:44:16;;;;;;;77.45;33.58;;;;;;;;;;5022133;28;20409;-77
2023/01/30 03:46:42;;;;;;;78.35;31.55;;;;;;;;;;5013294;28;20375;-77
2023/01/30 03:49:08;;;;;;;78.20;32.35;;;;;;;;;;5012793;28;20136;-77
2023/01/30 03:51:34;;;;;;;76.35;31.63;;;;;;;;;;5014384;28;20120;-77
2023/01/30 03:54:00;;;;;;;73.57;31.83;;;;;;;;;;5017457;28;20033;-77
2023/01/30 03:56:26;;;;;;;67.72;30.30;;;;;;;;;;5013299;28;20036;-77
2023/01/30 03:58:52;;;;;;;73.53;31.23;;;;;;;;;;5014433;28;20026;-77
2023/01/30 04:01:18;;;;;;;70.68;30.88;;;;;;;;;;5016720;28;20025;-77
2023/01/30 04:03:44;;;;;;;72.38;31.17;;;;;;;;;;5022670;28;20022;-77
2023/01/30 04:06:11;;;;;;;78.35;31.55;;;;;;;;;;5027176;28;20440;-77
2023/01/30 04:08:37;;;;;;;70.72;30.30;;;;;;;;;;5019383;28;20605;-77
2023/01/30 04:11:03;;;;;;;74.97;31.50;;;;;;;;;;5016314;28;20176;-77
2023/01/30 04:13:28;;;;;;;68.28;29.77;;;;;;;;;;5023186;28;20397;-77
2023/01/30 04:16:12;;;;;;;68.88;30.40;;;;;;;;;;5019440;28;20041;-77
2023/01/30 04:18:38;;;;;;;72.47;31.27;;;;;;;;;;5025736;28;20029;-76
2023/01/30 04:21:04;;;;;;;73.05;31.88;;;;;;;;;;5019091;28;20043;-77
2023/01/30 04:23:30;;;;;;;68.03;29.40;;;;;;;;;;5018971;28;20087;-77
2023/01/30 04:25:56;;;;;;;69.20;30.77;;;;;;;;;;5008832;28;20125;-77
2023/01/30 04:28:22;;;;;;;67.65;29.60;;;;;;;;;;5013863;28;20554;-77
2023/01/30 04:30:48;;;;;;;65.30;28.70;;;;;;;;;;5008689;28;20032;-77
2023/01/30 04:33:14;;;;;;;64.53;28.50;;;;;;;;;;5014768;28;20129;-77
2023/01/30 04:35:40;;;;;;;69.20;29.58;;;;;;;;;;5022517;28;20077;-77
2023/01/30 04:38:06;;;;;;;65.95;29.10;;;;;;;;;;5015988;28;20030;-77
2023/01/30 04:40:32;;;;;;;64.70;28.85;;;;;;;;;;5015049;28;20026;-76
2023/01/30 04:42:58;;;;;;;69.43;29.75;;;;;;;;;;5008193;28;20056;-76
2023/01/30 04:45:24;;;;;;;65.18;29.90;;;;;;;;;;5012244;28;20061;-76
2023/01/30 04:47:50;;;;;;;67.03;29.25;;;;;;;;;;5019542;28;20123;-76
2023/01/30 04:50:16;;;;;;;72.75;30.33;;;;;;;;;;5014418;28;20053;-77
2023/01/30 04:52:42;;;;;;;69.63;28.95;;;;;;;;;;5011981;28;20099;-77
2023/01/30 04:55:08;;;;;;;72.57;30.52;;;;;;;;;;5023525;28;20183;-77
2023/01/30 04:57:34;;;;;;;69.68;29.33;;;;;;;;;;5023736;28;20052;-77
2023/01/30 05:00:00;;;;;;;69.85;29.80;;;;;;;;;;5014204;28;20117;-77
2023/01/30 05:02:26;;;;;;;69.18;29.65;;;;;;;;;;5012946;28;20604;-77
2023/01/30 05:04:52;;;;;;;69.50;28.95;;;;;;;;;;5008074;28;20053;-77
2023/01/30 05:07:18;;;;;;;68.88;29.27;;;;;;;;;;5008634;28;20107;-77
2023/01/30 05:09:44;;;;;;;70.22;29.55;;;;;;;;;;5013714;28;20038;-76
2023/01/30 05:12:10;;;;;;;71.85;30.25;;;;;;;;;;5007359;28;20510;-76
2023/01/30 05:14:40;;;;;;;67.00;27.55;;;;;;;;;;5007715;28;20040;-76
2023/01/30 05:17:06;;;;;;;65.65;29.13;;;;;;;;;;5022584;28;20061;-76
2023/01/30 05:19:31;;;;;;;63.47;26.38;;;;;;;;;;5011920;28;20068;-76
2023/01/30 05:21:57;;;;;;;63.70;26.55;;;;;;;;;;5012586;28;20030;-76
2023/01/30 05:24:23;;;;;;;57.83;25.63;;;;;;;;;;5014897;28;20647;-76
2023/01/30 05:26:49;;;;;;;57.97;25.55;;;;;;;;;;5017386;28;20037;-76
2023/01/30 05:29:15;;;;;;;58.97;24.98;;;;;;;;;;5015158;28;20060;-76
2023/01/30 05:31:41;;;;;;;56.42;25.27;;;;;;;;;;5018075;28;20938;-76
2023/01/30 05:34:10;;;;;;;56.58;24.30;;;;;;;;;;5012388;28;20093;-75
2023/01/30 05:36:36;;;;;;;60.65;25.38;;;;;;;;;;5014609;28;20359;-75
2023/01/30 05:39:02;;;;;;;56.25;23.80;;;;;;;;;;5016757;28;20036;-75
2023/01/30 05:41:28;;;;;;;51.22;22.95;;;;;;;;;;5015534;28;22168;-75
2023/01/30 05:43:54;;;;;;;49.75;23.55;;;;;;;;;;5017200;28;20029;-75
2023/01/30 05:46:20;;;;;;;55.70;23.95;;;;;;;;;;5019004;28;20036;-75
2023/01/30 05:48:46;;;;;;;51.53;23.55;;;;;;;;;;5013183;28;20521;-76
2023/01/30 05:51:19;;;;;;;47.63;21.27;;;;;;;;;;5013813;28;20651;-75
2023/01/30 05:53:45;;;;;;;43.97;20.70;;;;;;;;;;5015130;28;20111;-76
2023/01/30 05:56:11;;;;;;;46.47;22.63;;;;;;;;;;5016081;28;20498;-76
2023/01/30 05:58:37;;;;;;;47.80;20.65;;;;;;;;;;5014478;28;20033;-76
2023/01/30 06:01:05;;;;;;;41.53;18.50;;;;;;;;;;5012691;28;20407;-75
2023/01/30 06:03:31;;;;;;;44.97;20.55;;;;;;;;;;5013635;28;20459;-75
2023/01/30 06:05:57;;;;;;;41.08;19.13;;;;;;;;;;5009613;28;20524;-76
2023/01/30 06:08:23;;;;;;;37.28;19.08;;;;;;;;;;5016972;28;20083;-76
2023/01/30 06:10:49;;;;;;;42.00;19.73;;;;;;;;;;5009355;28;20911;-76
2023/01/30 06:13:15;;;;;;;38.28;19.90;;;;;;;;;;5010728;28;20037;-76
2023/01/30 06:15:41;;;;;;;39.30;18.80;;;;;;;;;;5021256;28;20033;-75
2023/01/30 06:18:07;;;;;;;37.95;19.17;;;;;;;;;;5021009;28;20082;-76
2023/01/30 06:20:33;;;;;;;39.47;18.80;;;;;;;;;;5027010;28;20123;-76
2023/01/30 06:22:59;;;;;;;35.47;18.23;;;;;;;;;;5008746;28;20094;-75
2023/01/30 06:25:26;;;;;;;37.13;18.60;;;;;;;;;;5013015;28;20048;-75
2023/01/30 06:27:52;;;;;;;36.25;18.92;;;;;;;;;;5009458;28;20052;-76
2023/01/30 06:30:18;;;;;;;39.42;19.80;;;;;;;;;;5018353;28;20037;-76
2023/01/30 06:32:44;;;;;;;39.08;19.33;;;;;;;;;;5010421;28;20614;-76
2023/01/30 06:35:10;;;;;;;37.50;19.13;;;;;;;;;;5020199;28;20076;-75
2023/01/30 06:37:36;;;;;;;38.08;19.02;;;;;;;;;;5022074;28;20116;-75
2023/01/30 06:40:02;;;;;;;36.20;18.40;;;;;;;;;;5020557;28;20053;-76
2023/01/30 06:42:28;;;;;;;32.00;17.40;;;;;;;;;;5019189;28;20053;-75
2023/01/30 06:44:54;;;;;;;36.17;18.35;;;;;;;;;;5010027;28;20073;-75
2023/01/30 06:47:20;;;;;;;33.38;17.40;;;;;;;;;;5014220;28;20080;-75
2023/01/30 06:49:48;;;;;;;35.08;17.00;;;;;;;;;;5017312;28;20080;-75
2023/01/30 06:52:14;;;;;;;33.95;17.42;;;;;;;;;;5011214;28;20038;-75
2023/01/30 06:54:39;;;;;;;31.00;16.50;;;;;;;;;;5014747;28;20409;-75
2023/01/30 06:57:06;;;;;;;30.20;15.90;;;;;;;;;;5016449;28;20030;-75
2023/01/30 06:59:32;;;;;;;32.60;15.55;;;;;;;;;;5020875;28;20117;-76
2023/01/30 07:01:58;;;;;;;30.48;16.55;;;;;;;;;;5012979;28;20053;-76
2023/01/30 07:04:24;;;;;;;26.73;14.82;;;;;;;;;;5015105;28;20025;-75
2023/01/30 07:06:50;;;;;;;29.92;15.07;;;;;;;;;;5017146;28;20115;-75
2023/01/30 07:09:16;;;;;;;29.35;14.90;;;;;;;;;;5017670;28;20037;-75
2023/01/30 07:11:42;;;;;;;27.60;14.85;;;;;;;;;;5011808;28;20033;-75
2023/01/30 07:14:09;;;;;;;28.85;14.73;;;;;;;;;;5012569;28;20029;-74
2023/01/30 07:16:35;;;;;;;26.98;14.82;;;;;;;;;;5014085;28;20025;-74
2023/01/30 07:19:01;;;;;;;31.85;14.48;;;;;;;;;;5021591;28;20033;-74
2023/01/30 07:21:27;;;;;;;30.88;14.38;;;;;;;;;;5019727;28;20032;-74
2023/01/30 07:23:53;;;;;;;28.00;14.38;;;;;;;;;;5011013;28;20034;-74
2023/01/30 07:26:19;;;;;;;27.10;13.77;;;;;;;;;;5014264;28;20026;-73
2023/01/30 07:28:45;;;;;;;25.63;13.88;;;;;;;;;;5013272;28;20037;-73
2023/01/30 07:31:11;;;;;;;24.77;13.90;;;;;;;;;;5007035;28;20037;-73
2023/01/30 07:33:37;;;;;;;26.85;14.57;;;;;;;;;;5012411;28;20034;-73
2023/01/30 07:36:03;;;;;;;25.02;13.85;;;;;;;;;;5008077;28;20033;-74
2023/01/30 07:38:29;;;;;;;25.52;13.82;;;;;;;;;;5012080;28;20048;-73
2023/01/30 07:40:57;;;;;;;26.00;14.50;;;;;;;;;;5013833;28;20029;-73
2023/01/30 07:43:23;;;;;;;26.75;14.13;;;;;;;;;;5015856;28;20038;-72
2023/01/30 07:45:49;;;;;;;25.40;14.32;;;;;;;;;;5009803;28;20041;-72
2023/01/30 07:48:16;;;;;;;26.27;14.38;;;;;;;;;;5013431;28;20025;-71
2023/01/30 07:50:43;;;;;;;27.83;14.40;;;;;;;;;;5020855;28;20037;-72
2023/01/30 07:53:10;;;;;;;24.88;13.88;;;;;;;;;;5018690;28;20032;-72
2023/01/30 07:55:36;;;;;;;28.42;14.45;;;;;;;;;;5012036;28;20482;-72
2023/01/30 07:58:02;;;;;;;24.90;14.02;;;;;;;;;;5018311;28;20052;-73
2023/01/30 08:00:28;;;;;;;27.08;14.30;;;;;;;;;;5014217;28;20564;-72
2023/01/30 08:02:54;;;;;;;23.20;13.52;;;;;;;;;;5021723;28;20022;-73
2023/01/30 08:05:20;;;;;;;25.17;13.77;;;;;;;;;;5019736;28;20498;-72
2023/01/30 08:07:46;;;;;;;24.85;13.25;;;;;;;;;;5023243;28;20043;-72
2023/01/30 08:10:12;;;;;;;23.42;13.52;;;;;;;;;;5013588;28;20034;-72
2023/01/30 08:12:39;;;;;;;23.25;13.15;;;;;;;;;;5012252;28;20026;-72
2023/01/30 08:15:05;;;;;;;25.40;14.23;;;;;;;;;;5015572;28;20052;-72
2023/01/30 08:17:31;;;;;;;38.17;21.50;;;;;;;;;;5013646;28;20633;-72
2023/01/30 08:19:57;;;;;;;39.55;21.38;;;;;;;;;;5029382;28;20055;-72
2023/01/30 08:22:23;;;;;;;25.75;14.27;;;;;;;;;;5013641;28;20505;-72
2023/01/30 08:24:49;;;;;;;22.65;13.18;;;;;;;;;;5011834;28;20132;-72
2023/01/30 08:27:15;;;;;;;24.27;13.88;;;;;;;;;;5031897;28;20025;-72
2023/01/30 08:29:41;;;;;;;21.80;13.20;;;;;;;;;;5018591;28;20034;-72
2023/01/30 08:32:07;;;;;;;23.45;12.68;;;;;;;;;;5010223;28;20038;-73
2023/01/30 08:34:34;;;;;;;22.15;13.45;;;;;;;;;;5007566;28;20148;-73
2023/01/30 08:37:01;;;;;;;22.08;12.45;;;;;;;;;;5014820;28;20278;-72
2023/01/30 08:39:27;;;;;;;22.33;12.70;;;;;;;;;;5018448;28;20083;-73
2023/01/30 08:41:53;;;;;;;23.45;12.68;;;;;;;;;;5013543;28;20030;-72
2023/01/30 08:44:19;;;;;;;21.98;12.82;;;;;;;;;;5020672;28;20033;-72
2023/01/30 08:46:45;;;;;;;20.65;12.60;;;;;;;;;;5007463;28;20441;-72
2023/01/30 08:49:11;;;;;;;19.42;12.50;;;;;;;;;;5010268;28;20076;-72
2023/01/30 08:51:37;;;;;;;20.27;11.85;;;;;;;;;;5025226;28;20090;-72
2023/01/30 08:54:03;;;;;;;18.98;10.85;;;;;;;;;;5019440;28;20037;-71
2023/01/30 08:56:29;;;;;;;19.75;10.60;;;;;;;;;;5019257;28;20045;-73
2023/01/30 08:58:54;;;;;;;23.80;13.15;;;;;;;;;;5021303;28;20065;-71
2023/01/30 09:01:20;;;;;;;21.15;12.23;;;;;;;;;;5018961;28;20060;-71
2023/01/30 09:03:47;;;;;;;19.90;11.77;;;;;;;;;;5012090;28;20026;-73
2023/01/30 09:06:13;;;;;;;19.63;11.55;;;;;;;;;;5012847;28;20414;-73
2023/01/30 09:08:39;;;;;;;18.13;11.27;;;;;;;;;;5015092;28;20180;-72
2023/01/30 09:11:05;;;;;;;18.88;11.32;;;;;;;;;;5013709;28;20549;-73
2023/01/30 09:13:32;;;;;;;18.85;11.18;;;;;;;;;;5014009;28;20033;-73
2023/01/30 09:15:58;;;;;;;18.00;10.50;;;;;;;;;;5020929;28;20037;-73
2023/01/30 09:18:24;;;;;;;19.70;10.70;;;;;;;;;;5016019;28;20161;-72
2023/01/30 09:20:51;;;;;;;17.65;10.52;;;;;;;;;;5027986;28;20040;-73
2023/01/30 09:23:17;;;;;;;19.67;11.13;;;;;;;;;;5014945;28;20079;-73
2023/01/30 09:25:46;;;;;;;22.10;11.35;;;;;;;;;;5011802;28;20439;-73
2023/01/30 09:28:12;;;;;;;20.80;11.10;;;;;;;;;;5017935;28;20034;-73
2023/01/30 09:30:38;;;;;;;18.95;11.10;;;;;;;;;;5016129;28;20040;-73
2023/01/30 09:33:04;;;;;;;17.40;10.30;;;;;;;;;;5010072;28;20054;-72
2023/01/30 09:35:30;;;;;;;21.63;11.30;;;;;;;;;;5020565;28;20033;-73
2023/01/30 09:37:57;;;;;;;20.08;10.95;;;;;;;;;;5007052;28;20057;-72
2023/01/30 09:40:26;;;;;;;15.63;9.35;;;;;;;;;;5021424;28;20033;-71
2023/01/30 09:42:51;;;;;;;13.75;7.85;;;;;;;;;;5010814;28;20106;-72
2023/01/30 09:45:27;;;;;;;12.75;8.27;;;;;;;;;;5008212;28;20526;-70
2023/01/30 09:47:56;;;;;;;11.45;7.32;;;;;;;;;;5010862;28;20087;-71
2023/01/30 09:50:58;;;;;;;11.00;6.80;;;;;;;;;;5013350;28;20045;-70
2023/01/30 09:53:42;;;;;;;11.18;4.45;;;;;;;;;;4987286;28;20045;-72
2023/01/30 09:56:08;;;;;;;13.10;3.20;;;;;;;;;;5012770;28;20046;-70
2023/01/30 09:58:47;;;;;;;9.45;3.30;;;;;;;;;;5017180;28;20103;-71
2023/01/30 10:01:17;;;;;;;5.55;3.00;;;;;;;;;;5014548;28;20033;-70
2023/01/30 10:03:54;;;;;;;6.60;3.40;;;;;;;;;;5013541;28;20469;-70
2023/01/30 10:06:21;;;;;;;4.82;3.30;;;;;;;;;;5014154;28;20033;-71
2023/01/30 10:08:53;;;;;;;7.03;3.42;;;;;;;;;;5011872;28;20029;-71
2023/01/30 10:11:39;;;;;;;8.73;3.70;;;;;;;;;;5018116;28;20026;-70
2023/01/30 10:14:11;;;;;;;10.25;4.47;;;;;;;;;;5022514;28;20383;-71
2023/01/30 10:16:44;;;;;;;11.10;3.53;;;;;;;;;;5016196;28;20112;-70
2023/01/30 10:19:18;;;;;;;10.73;3.50;;;;;;;;;;5018870;28;20037;-72
2023/01/30 10:22:03;;;;;;;14.07;3.83;;;;;;;;;;5014998;28;20064;-71
2023/01/30 10:24:39;;;;;;;11.75;2.92;;;;;;;;;;5010655;28;20037;-71
2023/01/30 10:27:11;;;;;;;15.52;3.65;;;;;;;;;;5017663;28;20045;-71
2023/01/30 10:29:38;;;;;;;11.63;3.22;;;;;;;;;;5024028;28;20384;-71
2023/01/30 10:32:07;;;;;;;12.10;2.88;;;;;;;;;;5012422;28;20033;-72
2023/01/30 10:34:38;;;;;;;11.77;2.58;;;;;;;;;;5014802;28;20033;-71
2023/01/30 10:37:10;;;;;;;11.13;3.25;;;;;;;;;;5021897;28;20029;-72
2023/01/30 10:39:41;;;;;;;14.63;2.85;;;;;;;;;;5009622;28;20396;-71
2023/01/30 10:42:10;;;;;;;13.95;3.45;;;;;;;;;;5012293;28;20446;-72
2023/01/30 10:44:37;;;;;;;14.18;3.40;;;;;;;;;;5009987;28;20117;-71
2023/01/30 10:47:06;;;;;;;14.63;3.80;;;;;;;;;;5016061;28;20098;-71
2023/01/30 10:49:35;;;;;;;13.82;3.50;;;;;;;;;;5013421;28;20049;-71
2023/01/30 10:52:16;;;;;;;13.98;2.92;;;;;;;;;;5011659;28;20107;-71
2023/01/30 10:54:54;;;;;;;10.93;2.83;;;;;;;;;;5019491;28;20121;-71
2023/01/30 10:57:29;;;;;;;13.70;4.03;;;;;;;;;;5012444;28;20033;-71
2023/01/30 11:00:03;;;;;;;9.55;3.33;;;;;;;;;;5008547;28;20052;-71
2023/01/30 11:02:29;;;;;;;10.90;3.50;;;;;;;;;;5008798;28;20045;-71
2023/01/30 11:05:00;;;;;;;10.18;2.95;;;;;;;;;;5017699;28;20037;-71
2023/01/30 11:07:30;;;;;;;11.05;3.15;;;;;;;;;;5020387;28;20032;-72
2023/01/30 11:09:57;;;;;;;11.02;2.55;;;;;;;;;;5011833;28;20399;-71
2023/01/30 11:12:23;;;;;;;10.00;2.85;;;;;;;;;;5002292;28;20040;-70
2023/01/30 11:14:59;;;;;;;10.48;3.00;;;;;;;;;;5021103;28;20037;-70
2023/01/30 11:17:30;;;;;;;7.38;3.60;;;;;;;;;;5025130;28;20060;-70
2023/01/30 11:19:57;;;;;;;12.98;6.30;;;;;;;;;;5020409;28;20104;-70
2023/01/30 11:22:27;;;;;;;14.73;5.25;;;;;;;;;;5014539;28;20129;-71
2023/01/30 11:25:13;;;;;;;22.95;8.13;;;;;;;;;;5016335;28;20052;-71
2023/01/30 11:27:41;;;;;;;19.55;7.40;;;;;;;;;;5016866;28;20390;-70
2023/01/30 11:30:13;;;;;;;22.45;9.45;;;;;;;;;;5011052;28;20055;-71
2023/01/30 11:32:40;;;;;;;11.03;4.10;;;;;;;;;;5011782;28;20040;-71
2023/01/30 11:35:06;;;;;;;13.35;3.97;;;;;;;;;;5020827;28;20288;-71
2023/01/30 11:37:32;;;;;;;19.02;4.30;;;;;;;;;;5025657;28;20036;-71
2023/01/30 11:39:58;;;;;;;13.55;3.38;;;;;;;;;;5023387;28;20108;-71
2023/01/30 11:42:27;;;;;;;14.55;3.17;;;;;;;;;;5014189;28;20022;-71
2023/01/30 11:44:58;;;;;;;13.32;3.08;;;;;;;;;;5018429;28;20561;-71
2023/01/30 11:47:30;;;;;;;13.48;2.83;;;;;;;;;;5024459;28;20091;-71
2023/01/30 11:50:00;;;;;;;9.00;2.55;;;;;;;;;;5018369;28;20084;-71
2023/01/30 11:52:29;;;;;;;15.18;3.10;;;;;;;;;;5014613;28;20064;-71
2023/01/30 11:55:00;;;;;;;13.00;2.83;;;;;;;;;;5019246;28;20025;-72
2023/01/30 11:57:26;;;;;;;13.80;3.40;;;;;;;;;;5022256;28;20025;-71
2023/01/30 11:59:57;;;;;;;19.25;3.30;;;;;;;;;;5034070;28;20025;-72
2023/01/30 12:02:31;;;;;;;13.43;2.33;;;;;;;;;;5018934;28;20022;-72
2023/01/30 12:05:05;;;;;;;11.82;2.22;;;;;;;;;;5021165;28;20044;-71
2023/01/30 12:07:35;;;;;;;15.80;2.67;;;;;;;;;;5027224;28;20052;-71
2023/01/30 12:10:16;;;;;;;15.63;2.75;;;;;;;;;;5017816;28;20034;-72
2023/01/30 12:12:42;;;;;;;10.40;2.22;;;;;;;;;;5002796;28;20397;-71
2023/01/30 12:15:27;;;;;;;14.50;2.65;;;;;;;;;;5023065;28;20581;-71
2023/01/30 12:18:11;;;;;;;12.20;1.95;;;;;;;;;;5019599;28;20497;-71
2023/01/30 12:20:40;;;;;;;13.98;3.08;;;;;;;;;;5016486;28;20017;-72
2023/01/30 12:23:26;;;;;;;12.30;2.97;;;;;;;;;;5017436;28;20155;-72
2023/01/30 12:25:56;;;;;;;14.05;2.75;;;;;;;;;;5020252;28;20089;-71
2023/01/30 12:28:32;;;;;;;10.93;2.60;;;;;;;;;;5013215;28;20101;-72
2023/01/30 12:31:03;;;;;;;11.65;2.58;;;;;;;;;;5027909;28;20029;-71
2023/01/30 12:33:33;;;;;;;10.77;3.45;;;;;;;;;;5022411;28;20048;-71
2023/01/30 12:35:59;;;;;;;13.25;3.10;;;;;;;;;;5013544;28;20064;-71
2023/01/30 12:38:38;;;;;;;10.48;2.13;;;;;;;;;;5020611;28;20053;-71
2023/01/30 12:41:23;;;;;;;17.80;3.17;;;;;;;;;;5011826;28;20034;-71
2023/01/30 12:43:49;;;;;;;14.65;2.65;;;;;;;;;;5013867;28;20017;-71
2023/01/30 12:46:33;;;;;;;12.68;2.38;;;;;;;;;;5016012;28;21212;-71
2023/01/30 12:49:18;;;;;;;11.95;2.40;;;;;;;;;;5023962;28;20060;-71
2023/01/30 12:52:07;;;;;;;13.10;2.45;;;;;;;;;;5023777;28;20390;-72
2023/01/30 12:54:45;;;;;;;10.77;2.47;;;;;;;;;;5015559;28;20687;-71
2023/01/30 12:57:26;;;;;;;12.55;2.53;;;;;;;;;;5016295;28;20502;-72
2023/01/30 13:00:11;;;;;;;9.73;2.35;;;;;;;;;;5028198;28;20033;-72
2023/01/30 13:02:56;;;;;;;13.00;2.85;;;;;;;;;;5012028;28;20021;-72
2023/01/30 13:05:26;;;;;;;12.63;2.30;;;;;;;;;;5020671;28;20235;-72
2023/01/30 13:08:10;;;;;;;11.40;2.53;;;;;;;;;;5019033;28;20033;-73
2023/01/30 13:11:06;;;;;;;14.52;2.28;;;;;;;;;;5011543;28;20459;-72
2023/01/30 13:13:45;;;;;;;18.48;4.25;;;;;;;;;;5000060;28;20451;-73
2023/01/30 13:16:17;;;;;;;11.77;3.63;;;;;;;;;;5014597;28;20028;-73
2023/01/30 13:18:50;;;;;;;12.03;2.63;;;;;;;;;;5016274;28;20029;-73
2023/01/30 13:21:19;;;;;;;12.35;2.47;;;;;;;;;;5015844;28;20120;-72
2023/01/30 13:24:04;;;;;;;14.75;2.70;;;;;;;;;;5012413;28;20057;-73
2023/01/30 13:26:33;;;;;;;13.98;2.50;;;;;;;;;;5018128;28;20030;-73
2023/01/30 13:29:04;;;;;;;13.25;2.17;;;;;;;;;;5020612;28;20537;-73
2023/01/30 13:31:32;;;;;;;13.90;2.80;;;;;;;;;;5016622;28;20029;-72
2023/01/30 13:34:18;;;;;;;12.45;3.08;;;;;;;;;;5011472;28;20499;-73
2023/01/30 13:36:51;;;;;;;14.10;3.45;;;;;;;;;;5004905;28;20038;-73
2023/01/30 13:39:22;;;;;;;10.88;2.83;;;;;;;;;;5015163;28;20026;-72
2023/01/30 13:41:51;;;;;;;14.68;2.95;;;;;;;;;;5018248;28;20022;-75
2023/01/30 13:44:19;;;;;;;15.15;2.58;;;;;;;;;;5023021;28;20091;-75
2023/01/30 13:46:46;;;;;;;16.88;3.15;;;;;;;;;;5015798;28;20392;-75
2023/01/30 13:49:39;;;;;;;22.30;3.15;;;;;;;;;;5020456;28;20057;-75
2023/01/30 13:52:08;;;;;;;11.55;2.72;;;;;;;;;;5022523;28;20121;-75
2023/01/30 13:54:33;;;;;;;13.93;2.45;;;;;;;;;;5012994;28;20033;-75
2023/01/30 13:57:04;;;;;;;12.57;2.58;;;;;;;;;;5021131;28;20388;-75
2023/01/30 13:59:49;;;;;;;16.02;3.05;;;;;;;;;;5019834;28;20163;-75
2023/01/30 14:02:17;;;;;;;11.43;3.20;;;;;;;;;;5010496;28;20119;-75
2023/01/30 14:04:44;;;;;;;17.05;4.70;;;;;;;;;;5012128;28;20037;-75
2023/01/30 14:07:28;;;;;;;12.85;3.03;;;;;;;;;;5016153;28;20022;-76
2023/01/30 14:10:03;;;;;;;14.65;3.08;;;;;;;;;;5009326;28;20038;-76
2023/01/30 14:12:33;;;;;;;15.82;4.22;;;;;;;;;;5020633;28;20035;-76
2023/01/30 14:15:01;;;;;;;11.73;2.88;;;;;;;;;;5010692;28;20441;-77
2023/01/30 14:17:28;;;;;;;13.45;2.15;;;;;;;;;;5015377;28;20124;-77
2023/01/30 14:20:15;;;;;;;10.20;2.33;;;;;;;;;;5018125;28;20025;-77
2023/01/30 14:22:41;;;;;;;16.77;3.13;;;;;;;;;;5013253;28;20032;-77
2023/01/30 14:25:22;;;;;;;10.57;2.60;;;;;;;;;;5021725;28;20390;-77
2023/01/30 14:27:51;;;;;;;12.95;2.58;;;;;;;;;;5014719;28;20030;-77
2023/01/30 14:30:32;;;;;;;20.10;2.90;;;;;;;;;;5014894;28;20505;-75
2023/01/30 14:32:59;;;;;;;13.98;2.75;;;;;;;;;;5019517;28;20457;-78
2023/01/30 14:35:26;;;;;;;16.45;2.50;;;;;;;;;;5024518;28;20032;-80
2023/01/30 14:38:12;;;;;;;12.30;2.47;;;;;;;;;;5017244;28;20061;-80